createdAt,value
2018-12-18T00:00:52.748Z,2.80
2018-12-18T00:03:20.157Z,2.80
2018-12-18T00:05:47.629Z,2.80
2018-12-18T00:08:15.161Z,2.80
2018-12-18T00:10:46.457Z,2.80
2018-12-18T00:13:13.909Z,2.80
2018-12-18T00:15:41.343Z,2.80
2018-12-18T00:18:08.797Z,2.80
2018-12-18T00:20:36.223Z,2.80
2018-12-18T00:23:03.717Z,2.80
2018-12-18T00:25:31.188Z,2.80
2018-12-18T00:27:58.600Z,2.70
2018-12-18T00:30:26.118Z,2.80
2018-12-18T00:32:53.562Z,2.80
2018-12-18T00:35:21.028Z,2.80
2018-12-18T00:37:48.502Z,2.80
2018-12-18T00:40:15.953Z,2.80
2018-12-18T00:42:43.368Z,2.80
2018-12-18T00:45:10.902Z,2.80
2018-12-18T00:47:38.324Z,2.80
2018-12-18T00:50:05.809Z,2.80
2018-12-18T00:52:33.286Z,2.80
2018-12-18T00:55:00.733Z,2.90
2018-12-18T00:57:28.140Z,2.90
2018-12-18T00:59:55.585Z,3.00
2018-12-18T01:02:23.081Z,3.00
2018-12-18T01:04:50.990Z,2.90
2018-12-18T01:07:18.734Z,3.00
2018-12-18T01:09:46.218Z,2.90
2018-12-18T01:12:13.680Z,2.90
2018-12-18T01:14:41.108Z,2.90
2018-12-18T01:17:08.552Z,2.90
2018-12-18T01:19:36.010Z,2.90
2018-12-18T01:22:03.548Z,2.90
2018-12-18T01:24:31.001Z,2.90
2018-12-18T01:26:58.479Z,2.90
2018-12-18T01:29:26.020Z,2.90
2018-12-18T01:31:53.504Z,2.90
2018-12-18T01:34:20.965Z,2.80
2018-12-18T01:36:48.515Z,2.80
2018-12-18T01:39:15.979Z,2.80
2018-12-18T01:41:43.477Z,2.80
2018-12-18T01:44:10.981Z,2.90
2018-12-18T01:46:38.429Z,2.80
2018-12-18T01:49:05.900Z,2.90
2018-12-18T01:51:33.372Z,2.80
2018-12-18T01:54:00.807Z,2.80
2018-12-18T01:56:28.220Z,2.80
2018-12-18T01:58:55.913Z,2.90
2018-12-18T02:01:23.375Z,2.80
2018-12-18T02:03:50.844Z,2.90
2018-12-18T02:06:18.306Z,2.80
2018-12-18T02:08:45.825Z,2.80
2018-12-18T02:11:13.260Z,2.80
2018-12-18T02:13:40.710Z,2.70
2018-12-18T02:16:09.749Z,2.60
2018-12-18T02:18:37.648Z,2.50
2018-12-18T02:21:05.118Z,2.50
2018-12-18T02:23:32.573Z,2.40
2018-12-18T02:26:00.059Z,2.40
2018-12-18T02:28:27.609Z,2.30
2018-12-18T02:30:55.046Z,2.30
2018-12-18T02:33:22.593Z,2.20
2018-12-18T02:35:50.029Z,2.20
2018-12-18T02:38:17.490Z,2.20
2018-12-18T02:40:45.111Z,2.20
2018-12-18T02:43:12.563Z,2.20
2018-12-18T02:45:40.051Z,2.10
2018-12-18T02:48:07.485Z,2.10
2018-12-18T02:50:34.959Z,2.20
2018-12-18T02:53:02.399Z,2.20
2018-12-18T02:55:29.933Z,2.30
2018-12-18T02:57:57.700Z,2.30
2018-12-18T03:00:25.173Z,2.20
2018-12-18T03:02:52.713Z,2.20
2018-12-18T03:05:20.246Z,2.20
2018-12-18T03:07:47.739Z,2.10
2018-12-18T03:10:15.145Z,2.00
2018-12-18T03:12:42.614Z,2.00
2018-12-18T03:15:10.095Z,1.90
2018-12-18T03:17:37.508Z,1.90
2018-12-18T03:20:06.749Z,1.80
2018-12-18T03:22:34.184Z,1.80
2018-12-18T03:25:01.659Z,1.80
2018-12-18T03:27:29.204Z,1.70
2018-12-18T03:29:56.681Z,1.70
2018-12-18T03:32:25.957Z,1.70
2018-12-18T03:34:53.538Z,1.60
2018-12-18T03:37:21.030Z,1.60
2018-12-18T03:39:48.484Z,1.70
2018-12-18T03:42:15.948Z,1.70
2018-12-18T03:44:43.389Z,1.60
2018-12-18T03:47:10.931Z,1.60
2018-12-18T03:49:38.436Z,1.70
2018-12-18T03:52:05.846Z,1.80
2018-12-18T03:54:33.308Z,1.80
2018-12-18T03:57:00.905Z,1.80
2018-12-18T03:59:28.409Z,1.90
2018-12-18T04:01:55.848Z,2.00
2018-12-18T04:04:23.346Z,2.00
2018-12-18T04:06:50.842Z,1.90
2018-12-18T04:09:18.313Z,1.90
2018-12-18T04:14:50.806Z,1.80
2018-12-18T04:17:18.297Z,1.90
2018-12-18T04:19:45.838Z,1.90
2018-12-18T04:22:13.273Z,2.00
2018-12-18T04:24:40.760Z,2.10
2018-12-18T04:27:08.221Z,2.10
2018-12-18T04:29:35.685Z,2.20
2018-12-18T04:32:03.143Z,2.20
2018-12-18T04:34:30.589Z,2.30
2018-12-18T04:36:58.029Z,2.30
2018-12-18T04:39:25.520Z,2.30
2018-12-18T04:41:52.995Z,2.30
2018-12-18T04:44:20.423Z,2.30
2018-12-18T04:46:47.897Z,2.40
2018-12-18T04:49:15.316Z,2.40
2018-12-18T04:51:42.744Z,2.40
2018-12-18T04:54:10.294Z,2.40
2018-12-18T04:56:37.716Z,2.40
2018-12-18T04:59:05.167Z,2.50
2018-12-18T05:01:32.655Z,2.50
2018-12-18T05:04:00.087Z,2.50
2018-12-18T05:06:27.545Z,2.50
2018-12-18T05:08:55.029Z,2.50
2018-12-18T05:11:22.471Z,2.50
2018-12-18T05:13:49.958Z,2.50
2018-12-18T05:16:17.422Z,2.50
2018-12-18T05:18:44.896Z,2.50
2018-12-18T05:21:12.366Z,2.50
2018-12-18T05:23:39.850Z,2.50
2018-12-18T05:26:07.367Z,2.50
2018-12-18T05:28:34.812Z,2.50
2018-12-18T05:31:02.570Z,2.50
2018-12-18T05:33:30.011Z,2.40
2018-12-18T05:35:57.426Z,2.50
2018-12-18T05:38:24.897Z,2.40
2018-12-18T05:40:52.348Z,2.40
2018-12-18T05:43:19.857Z,2.50
2018-12-18T05:45:47.372Z,2.40
2018-12-18T05:48:14.857Z,2.40
2018-12-18T05:50:42.319Z,2.40
2018-12-18T05:53:09.838Z,2.30
2018-12-18T05:55:37.290Z,2.20
2018-12-18T05:58:04.745Z,2.20
2018-12-18T06:00:32.218Z,2.20
2018-12-18T06:02:59.713Z,2.10
2018-12-18T06:05:27.190Z,2.20
2018-12-18T06:07:54.750Z,2.20
2018-12-18T06:10:22.284Z,2.20
2018-12-18T06:12:49.865Z,2.10
2018-12-18T06:15:17.316Z,2.10
2018-12-18T06:17:44.771Z,2.10
2018-12-18T06:20:12.297Z,2.20
2018-12-18T06:22:39.776Z,2.20
2018-12-18T06:25:07.304Z,2.20
2018-12-18T06:27:34.761Z,2.20
2018-12-18T06:30:02.275Z,2.20
2018-12-18T06:32:29.988Z,2.20
2018-12-18T06:34:57.449Z,2.30
2018-12-18T06:37:24.935Z,2.30
2018-12-18T06:39:52.431Z,2.30
2018-12-18T06:42:19.885Z,2.20
2018-12-18T06:44:47.362Z,2.30
2018-12-18T06:47:14.817Z,2.30
2018-12-18T06:49:42.628Z,2.30
2018-12-18T06:52:10.129Z,2.30
2018-12-18T06:54:37.549Z,2.30
2018-12-18T06:57:05.022Z,2.30
2018-12-18T06:59:32.506Z,2.20
2018-12-18T07:02:00.054Z,2.20
2018-12-18T07:04:27.569Z,2.20
2018-12-18T07:06:55.075Z,2.20
2018-12-18T07:09:22.559Z,2.20
2018-12-18T07:11:50.058Z,2.20
2018-12-18T07:14:17.555Z,2.20
2018-12-18T07:16:45.020Z,2.10
2018-12-18T07:19:12.446Z,2.20
2018-12-18T07:21:39.998Z,2.20
2018-12-18T07:24:13.845Z,2.20
2018-12-18T07:26:36.863Z,2.20
2018-12-18T07:29:04.671Z,2.10
2018-12-18T07:31:32.138Z,2.10
2018-12-18T07:34:00.014Z,2.10
2018-12-18T07:36:27.445Z,2.10
2018-12-18T07:38:54.899Z,2.10
2018-12-18T07:41:22.352Z,2.10
2018-12-18T07:43:49.851Z,2.20
2018-12-18T07:46:17.394Z,2.10
2018-12-18T07:48:44.816Z,2.10
2018-12-18T07:51:12.334Z,2.10
2018-12-18T07:53:39.784Z,2.20
2018-12-18T07:56:07.250Z,2.20
2018-12-18T07:58:34.765Z,2.20
2018-12-18T08:01:02.256Z,2.20
2018-12-18T08:03:29.676Z,2.10
2018-12-18T08:05:57.202Z,2.10
2018-12-18T08:08:24.650Z,2.10
2018-12-18T08:10:52.092Z,2.20
2018-12-18T08:13:19.582Z,2.20
2018-12-18T08:15:47.020Z,2.30
2018-12-18T08:18:14.477Z,2.30
2018-12-18T08:20:41.956Z,2.40
2018-12-18T08:23:09.372Z,2.60
2018-12-18T08:25:36.878Z,2.80
2018-12-18T08:28:04.399Z,3.00
2018-12-18T08:30:31.840Z,3.10
2018-12-18T08:32:59.301Z,3.10
2018-12-18T08:35:26.805Z,3.20
2018-12-18T08:37:54.264Z,3.40
2018-12-18T08:40:21.699Z,3.50
2018-12-18T08:42:49.196Z,3.70
2018-12-18T08:45:16.669Z,3.70
2018-12-18T08:47:44.089Z,3.80
2018-12-18T08:50:11.583Z,3.80
2018-12-18T08:52:39.106Z,4.00
2018-12-18T08:55:06.721Z,4.10
2018-12-18T08:57:34.358Z,4.20
2018-12-18T09:00:01.953Z,4.20
2018-12-18T09:02:29.730Z,4.20
2018-12-18T09:04:57.236Z,4.20
2018-12-18T09:07:24.700Z,4.10
2018-12-18T09:09:52.135Z,4.00
2018-12-18T09:12:19.588Z,3.90
2018-12-18T09:14:52.892Z,3.70
2018-12-18T09:17:22.524Z,3.60
2018-12-18T09:19:49.959Z,3.50
2018-12-18T09:22:17.447Z,3.50
2018-12-18T09:24:44.973Z,3.40
2018-12-18T09:27:12.416Z,3.40
2018-12-18T09:29:39.864Z,3.40
2018-12-18T09:32:07.337Z,3.50
2018-12-18T09:34:34.821Z,3.60
2018-12-18T09:37:02.261Z,3.70
2018-12-18T09:39:35.496Z,3.80
2018-12-18T09:45:11.456Z,4.00
2018-12-18T09:47:38.898Z,4.20
2018-12-18T09:50:06.394Z,4.20
2018-12-18T09:52:33.849Z,4.20
2018-12-18T09:55:01.633Z,4.20
2018-12-18T09:57:34.694Z,4.10
2018-12-18T10:00:02.217Z,4.00
2018-12-18T10:02:29.636Z,4.00
2018-12-18T10:04:57.171Z,4.00
2018-12-18T10:07:24.614Z,4.10
2018-12-18T10:09:52.044Z,4.10
2018-12-18T10:12:21.591Z,4.10
2018-12-18T10:14:48.994Z,4.10
2018-12-18T10:17:16.511Z,4.20
2018-12-18T10:19:43.982Z,4.20
2018-12-18T10:22:11.408Z,4.10
2018-12-18T10:24:38.844Z,4.10
2018-12-18T10:27:06.311Z,4.10
2018-12-18T10:29:33.750Z,4.20
2018-12-18T10:32:01.199Z,4.10
2018-12-18T10:34:28.697Z,4.20
2018-12-18T10:36:56.102Z,4.20
2018-12-18T10:39:23.539Z,4.30
2018-12-18T10:41:50.968Z,4.30
2018-12-18T10:44:18.404Z,4.20
2018-12-18T10:46:45.839Z,4.20
2018-12-18T10:49:13.288Z,4.20
2018-12-18T10:51:40.734Z,4.20
2018-12-18T10:54:08.205Z,4.20
2018-12-18T10:56:35.727Z,4.20
2018-12-18T10:59:03.232Z,4.10
2018-12-18T11:01:36.340Z,4.10
2018-12-18T11:04:03.879Z,4.10
2018-12-18T11:06:31.356Z,4.10
2018-12-18T11:08:58.816Z,4.00
2018-12-18T11:11:26.237Z,4.10
2018-12-18T11:13:53.681Z,4.00
2018-12-18T11:16:21.171Z,4.00
2018-12-18T11:18:48.585Z,4.10
2018-12-18T11:21:16.012Z,4.10
2018-12-18T11:23:43.507Z,4.10
2018-12-18T11:26:10.978Z,4.00
2018-12-18T11:28:38.633Z,4.10
2018-12-18T11:31:06.189Z,4.10
2018-12-18T11:33:33.584Z,4.00
2018-12-18T11:36:01.003Z,4.00
2018-12-18T11:38:28.912Z,4.00
2018-12-18T11:40:56.324Z,4.00
2018-12-18T11:43:24.485Z,4.10
2018-12-18T11:45:51.995Z,4.10
2018-12-18T11:48:19.445Z,4.10
2018-12-18T11:50:46.937Z,4.10
2018-12-18T11:53:14.588Z,4.10
2018-12-18T11:55:42.042Z,4.20
2018-12-18T11:58:09.510Z,4.30
2018-12-18T12:00:37.461Z,4.30
2018-12-18T12:03:04.872Z,4.40
2018-12-18T12:05:32.288Z,4.50
2018-12-18T12:07:59.783Z,4.50
2018-12-18T12:10:27.213Z,4.40
2018-12-18T12:12:54.681Z,4.20
2018-12-18T12:15:22.109Z,4.00
2018-12-18T12:17:49.710Z,3.90
2018-12-18T12:20:17.140Z,4.00
2018-12-18T12:22:44.609Z,4.10
2018-12-18T12:25:12.022Z,4.10
2018-12-18T12:27:45.316Z,4.00
2018-12-18T12:30:12.836Z,3.90
2018-12-18T12:32:40.285Z,3.80
2018-12-18T12:35:07.763Z,3.80
2018-12-18T12:37:35.176Z,3.70
2018-12-18T12:40:03.001Z,3.70
2018-12-18T12:42:30.463Z,3.80
2018-12-18T12:44:57.878Z,3.90
2018-12-18T12:47:25.372Z,3.80
2018-12-18T12:49:52.800Z,3.80
2018-12-18T12:52:20.338Z,3.70
2018-12-18T12:54:47.780Z,3.60
2018-12-18T12:57:15.301Z,3.50
2018-12-18T12:59:42.788Z,3.60
2018-12-18T13:02:10.248Z,3.60
2018-12-18T13:04:37.758Z,3.60
2018-12-18T13:07:05.252Z,3.60
2018-12-18T13:09:32.724Z,3.60
2018-12-18T13:12:00.173Z,3.50
2018-12-18T13:14:27.577Z,3.50
2018-12-18T13:16:55.030Z,3.50
2018-12-18T13:19:22.473Z,3.40
2018-12-18T13:21:49.918Z,3.40
2018-12-18T13:24:17.386Z,3.40
2018-12-18T13:26:44.837Z,3.50
2018-12-18T13:29:12.272Z,3.60
2018-12-18T13:31:39.712Z,3.70
2018-12-18T13:34:07.198Z,3.80
2018-12-18T13:36:34.600Z,3.90
2018-12-18T13:39:02.048Z,4.00
2018-12-18T13:41:29.540Z,4.10
2018-12-18T13:43:57.038Z,4.10
2018-12-18T13:46:24.445Z,4.20
2018-12-18T13:48:51.954Z,4.20
2018-12-18T13:51:19.409Z,4.10
2018-12-18T13:53:46.927Z,4.10
2018-12-18T13:56:14.488Z,4.10
2018-12-18T13:58:41.984Z,4.10
2018-12-18T14:01:09.429Z,4.00
2018-12-18T14:03:36.896Z,3.90
2018-12-18T14:06:04.402Z,3.90
2018-12-18T14:08:31.867Z,3.80
2018-12-18T14:10:59.341Z,3.80
2018-12-18T14:13:26.756Z,3.80
2018-12-18T14:15:54.213Z,3.80
2018-12-18T14:18:21.725Z,3.70
2018-12-18T14:20:49.144Z,3.70
2018-12-18T14:23:16.644Z,3.60
2018-12-18T14:25:44.208Z,3.60
2018-12-18T14:28:11.616Z,3.60
2018-12-18T14:30:39.479Z,3.60
2018-12-18T14:33:06.978Z,3.50
2018-12-18T14:35:34.808Z,3.50
2018-12-18T14:38:02.273Z,3.50
2018-12-18T14:40:29.728Z,3.50
2018-12-18T14:42:57.194Z,3.50
2018-12-18T14:45:24.632Z,3.40
2018-12-18T14:47:52.088Z,3.40
2018-12-18T14:50:19.689Z,3.30
2018-12-18T14:52:47.156Z,3.20
2018-12-18T14:55:14.731Z,3.20
2018-12-18T14:57:42.194Z,3.10
2018-12-18T15:00:09.739Z,3.10
2018-12-18T15:02:37.222Z,3.10
2018-12-18T15:05:04.859Z,3.00
2018-12-18T15:07:32.320Z,3.00
2018-12-18T15:09:59.769Z,3.00
2018-12-18T15:12:27.198Z,3.10
2018-12-18T15:14:54.650Z,3.00
2018-12-18T15:17:22.100Z,3.00
2018-12-18T15:19:49.521Z,2.90
2018-12-18T15:22:16.960Z,2.90
2018-12-18T15:24:44.501Z,2.90
2018-12-18T15:27:11.958Z,2.90
2018-12-18T15:29:39.428Z,2.90
2018-12-18T15:32:07.227Z,2.90
2018-12-18T15:34:34.651Z,2.90
2018-12-18T15:37:02.119Z,2.90
2018-12-18T15:39:29.590Z,2.90
2018-12-18T15:41:57.030Z,2.90
2018-12-18T15:44:24.481Z,2.90
2018-12-18T15:46:51.990Z,2.90
2018-12-18T15:49:19.480Z,2.90
2018-12-18T15:51:46.970Z,2.90
2018-12-18T15:54:14.584Z,2.80
2018-12-18T15:56:42.028Z,2.80
2018-12-18T15:59:09.469Z,2.80
2018-12-18T16:01:36.995Z,2.80
2018-12-18T16:04:04.405Z,2.70
2018-12-18T16:06:31.924Z,2.70
2018-12-18T16:08:59.421Z,2.70
2018-12-18T16:11:26.885Z,2.70
2018-12-18T16:13:54.335Z,2.70
2018-12-18T16:16:21.863Z,2.70
2018-12-18T16:18:49.284Z,2.70
2018-12-18T16:21:16.763Z,2.70
2018-12-18T16:23:44.329Z,2.70
2018-12-18T16:26:11.797Z,2.70
2018-12-18T16:28:39.299Z,2.70
2018-12-18T16:31:06.768Z,2.70
2018-12-18T16:33:34.251Z,2.60
2018-12-18T16:36:01.705Z,2.60
2018-12-18T16:38:29.162Z,2.60
2018-12-18T16:40:56.641Z,2.50
2018-12-18T16:43:24.094Z,2.50
2018-12-18T16:45:51.549Z,2.50
2018-12-18T16:48:19.002Z,2.60
2018-12-18T16:50:46.456Z,2.50
2018-12-18T16:53:13.903Z,2.50
2018-12-18T16:55:41.365Z,2.50
2018-12-18T16:58:08.800Z,2.50
2018-12-18T17:00:36.288Z,2.60
2018-12-18T17:03:03.792Z,2.50
2018-12-18T17:05:31.209Z,2.50
2018-12-18T17:07:58.713Z,2.50
2018-12-18T17:10:26.152Z,2.50
2018-12-18T17:12:56.123Z,2.50
2018-12-18T17:15:23.780Z,2.40
2018-12-18T17:17:51.197Z,2.40
2018-12-18T17:20:18.715Z,2.40
2018-12-18T17:22:46.176Z,2.40
2018-12-18T17:25:13.831Z,2.40
2018-12-18T17:27:41.292Z,2.40
2018-12-18T17:30:09.116Z,2.40
2018-12-18T17:32:36.550Z,2.40
2018-12-18T17:35:04.275Z,2.40
2018-12-18T17:37:36.211Z,2.40
2018-12-18T17:40:01.427Z,2.30
2018-12-18T17:42:28.844Z,2.10
2018-12-18T17:44:56.362Z,2.00
2018-12-18T17:47:23.789Z,1.90
2018-12-18T17:49:51.283Z,1.80
2018-12-18T17:52:18.788Z,1.80
2018-12-18T17:54:46.216Z,1.90
2018-12-18T17:57:13.665Z,1.90
2018-12-18T17:59:41.146Z,1.90
2018-12-18T18:02:08.953Z,1.90
2018-12-18T18:04:36.397Z,1.80
2018-12-18T18:07:03.965Z,1.80
2018-12-18T18:09:31.417Z,1.80
2018-12-18T18:11:58.865Z,1.80
2018-12-18T18:14:26.405Z,1.70
2018-12-18T18:16:53.862Z,1.80
2018-12-18T18:19:21.300Z,1.80
2018-12-18T18:21:48.784Z,1.80
2018-12-18T18:24:16.237Z,1.80
2018-12-18T18:26:43.730Z,1.80
2018-12-18T18:29:11.453Z,1.80
2018-12-18T18:31:38.946Z,1.80
2018-12-18T18:34:06.401Z,1.70
2018-12-18T18:36:33.898Z,1.80
2018-12-18T18:39:01.381Z,1.70
2018-12-18T18:41:28.870Z,1.80
2018-12-18T18:43:56.344Z,1.70
2018-12-18T18:46:23.849Z,1.70
2018-12-18T18:48:51.440Z,1.70
2018-12-18T18:51:18.915Z,1.70
2018-12-18T18:53:46.348Z,1.60
2018-12-18T18:56:13.986Z,1.60
2018-12-18T18:58:41.486Z,1.50
2018-12-18T19:01:08.945Z,1.50
2018-12-18T19:03:36.429Z,1.50
2018-12-18T19:06:04.007Z,1.40
2018-12-18T19:08:31.520Z,1.40
2018-12-18T19:10:58.972Z,1.40
2018-12-18T19:13:26.448Z,1.40
2018-12-18T19:15:53.942Z,1.40
2018-12-18T19:18:21.406Z,1.40
2018-12-18T19:20:49.367Z,1.40
2018-12-18T19:23:16.804Z,1.40
2018-12-18T19:25:44.275Z,1.40
2018-12-18T19:28:11.755Z,1.40
2018-12-18T19:30:39.168Z,1.30
2018-12-18T19:33:06.644Z,1.40
2018-12-18T19:35:34.108Z,1.30
2018-12-18T19:38:03.277Z,1.30
2018-12-18T19:40:31.018Z,1.40
2018-12-18T19:42:58.533Z,1.30
2018-12-18T19:45:25.984Z,1.30
2018-12-18T19:47:53.412Z,1.30
2018-12-18T19:50:20.879Z,1.30
2018-12-18T19:52:48.334Z,1.20
2018-12-18T19:55:15.812Z,1.20
2018-12-18T19:57:43.269Z,1.20
2018-12-18T20:00:11.017Z,1.30
2018-12-18T20:02:38.439Z,1.30
2018-12-18T20:05:06.102Z,1.30
2018-12-18T20:07:33.605Z,1.40
2018-12-18T20:10:01.031Z,1.40
2018-12-18T20:12:28.492Z,1.30
2018-12-18T20:14:55.940Z,1.30
2018-12-18T20:17:23.428Z,1.30
2018-12-18T20:19:50.966Z,1.20
2018-12-18T20:22:18.393Z,1.20
2018-12-18T20:24:45.837Z,1.10
2018-12-18T20:27:13.314Z,1.00
2018-12-18T20:29:40.835Z,1.00
2018-12-18T20:32:08.280Z,1.00
2018-12-18T20:34:35.725Z,1.00
2018-12-18T20:37:03.193Z,0.90
2018-12-18T20:39:30.633Z,0.90
2018-12-18T20:41:58.172Z,0.80
2018-12-18T20:44:25.689Z,0.80
2018-12-18T20:46:53.176Z,0.80
2018-12-18T20:49:20.707Z,0.70
2018-12-18T20:51:48.175Z,0.60
2018-12-18T20:54:15.659Z,0.60
2018-12-18T20:56:43.558Z,0.50
2018-12-18T20:59:11.075Z,0.40
2018-12-18T21:01:38.565Z,0.40
2018-12-18T21:04:06.142Z,0.30
2018-12-18T21:06:33.677Z,0.30
2018-12-18T21:09:01.106Z,0.40
2018-12-18T21:11:28.623Z,0.50
2018-12-18T21:13:56.096Z,0.50
2018-12-18T21:16:23.604Z,0.40
2018-12-18T21:18:51.122Z,0.40
2018-12-18T21:21:18.774Z,0.30
2018-12-18T21:23:46.270Z,0.20
2018-12-18T21:26:13.768Z,0.10
2018-12-18T21:28:41.223Z,0.00
2018-12-18T21:31:08.714Z,0.00
2018-12-18T21:33:36.245Z,-0.10
2018-12-18T21:36:03.795Z,-0.10
2018-12-18T21:38:31.273Z,0.00
2018-12-18T21:40:58.814Z,0.00
2018-12-18T21:43:26.382Z,0.10
2018-12-18T21:45:53.924Z,0.20
2018-12-18T21:48:21.422Z,0.20
2018-12-18T21:50:48.871Z,0.20
2018-12-18T21:53:16.365Z,0.10
2018-12-18T21:55:43.906Z,0.10
2018-12-18T21:58:11.437Z,0.00
2018-12-18T22:00:38.914Z,-0.10
2018-12-18T22:03:06.645Z,-0.10
2018-12-18T22:05:34.158Z,-0.10
2018-12-18T22:08:01.673Z,-0.20
2018-12-18T22:10:29.180Z,-0.20
2018-12-18T22:12:56.641Z,-0.20
2018-12-18T22:15:24.246Z,-0.30
2018-12-18T22:17:51.749Z,-0.30
2018-12-18T22:20:19.339Z,-0.30
2018-12-18T22:22:46.864Z,-0.30
2018-12-18T22:25:14.404Z,-0.30
2018-12-18T22:27:43.022Z,-0.30
2018-12-18T22:30:11.577Z,-0.30
2018-12-18T22:32:39.114Z,-0.40
2018-12-18T22:35:06.687Z,-0.50
2018-12-18T22:37:34.167Z,-0.50
2018-12-18T22:40:01.753Z,-0.50
2018-12-18T22:42:29.307Z,-0.50
2018-12-18T22:44:56.846Z,-0.40
2018-12-18T22:47:24.302Z,-0.50
2018-12-18T22:49:51.815Z,-0.40
2018-12-18T22:52:19.296Z,-0.40
2018-12-18T22:54:46.898Z,-0.50
2018-12-18T22:57:14.541Z,-0.50
2018-12-18T22:59:41.997Z,-0.40
2018-12-18T23:02:15.484Z,-0.40
2018-12-18T23:04:43.386Z,-0.40
2018-12-18T23:07:10.848Z,-0.40
2018-12-18T23:09:38.356Z,-0.40
2018-12-18T23:12:05.959Z,-0.50
2018-12-18T23:14:33.541Z,-0.60
2018-12-18T23:17:01.015Z,-0.60
2018-12-18T23:19:28.605Z,-0.70
2018-12-18T23:21:56.052Z,-0.70
2018-12-18T23:24:23.551Z,-0.70
2018-12-18T23:26:51.012Z,-0.70
2018-12-18T23:29:18.744Z,-0.70
2018-12-18T23:31:46.253Z,-0.70
2018-12-18T23:34:13.722Z,-0.80
2018-12-18T23:36:41.196Z,-0.80
2018-12-18T23:39:08.951Z,-0.80
2018-12-18T23:41:36.725Z,-0.80
2018-12-18T23:44:04.398Z,-0.70
2018-12-18T23:46:31.877Z,-0.80
2018-12-18T23:48:59.365Z,-0.80
2018-12-18T23:51:27.001Z,-0.80
2018-12-18T23:53:54.575Z,-0.90
2018-12-18T23:56:22.031Z,-0.90
2018-12-18T23:58:49.579Z,-0.80
